sensor_id;sensor_type;location;lat;lon;timestamp;pressure;altitude;pressure_sealevel;temperature;humidity
21742;BME280;11033;47.490;11.116;2024-03-17T00:00:20;93741.31;;;8.33;76.19
21742;BME280;11033;47.490;11.116;2024-03-17T00:02:45;93749.63;;;8.35;75.89
21742;BME280;11033;47.490;11.116;2024-03-17T00:05:11;93745.09;;;8.32;77.25
21742;BME280;11033;47.490;11.116;2024-03-17T00:07:37;93747.75;;;8.32;77.20
21742;BME280;11033;47.490;11.116;2024-03-17T00:10:02;93741.69;;;8.35;76.75
21742;BME280;11033;47.490;11.116;2024-03-17T00:12:28;93737.91;;;8.33;76.43
21742;BME280;11033;47.490;11.116;2024-03-17T00:14:53;93740.53;;;8.29;77.68
21742;BME280;11033;47.490;11.116;2024-03-17T00:17:18;93742.78;;;8.27;78.25
21742;BME280;11033;47.490;11.116;2024-03-17T00:19:45;93742.81;;;8.34;76.50
21742;BME280;11033;47.490;11.116;2024-03-17T00:22:11;93739.44;;;8.37;76.17
21742;BME280;11033;47.490;11.116;2024-03-17T00:24:38;93734.53;;;8.36;76.70
21742;BME280;11033;47.490;11.116;2024-03-17T00:27:04;93729.97;;;8.36;76.61
21742;BME280;11033;47.490;11.116;2024-03-17T00:29:29;93729.25;;;8.36;77.22
21742;BME280;11033;47.490;11.116;2024-03-17T00:31:54;93727.31;;;8.33;78.07
21742;BME280;11033;47.490;11.116;2024-03-17T00:34:20;93722.03;;;8.36;76.17
21742;BME280;11033;47.490;11.116;2024-03-17T00:36:46;93717.91;;;8.32;76.16
21742;BME280;11033;47.490;11.116;2024-03-17T00:39:11;93725.81;;;8.32;76.92
21742;BME280;11033;47.490;11.116;2024-03-17T00:41:37;93729.19;;;8.29;77.16
21742;BME280;11033;47.490;11.116;2024-03-17T00:44:03;93732.59;;;8.29;76.50
21742;BME280;11033;47.490;11.116;2024-03-17T00:46:28;93731.44;;;8.23;78.23
21742;BME280;11033;47.490;11.116;2024-03-17T00:48:54;93730.31;;;8.27;76.57
21742;BME280;11033;47.490;11.116;2024-03-17T00:51:19;93724.25;;;8.27;76.86
21742;BME280;11033;47.490;11.116;2024-03-17T00:53:44;93717.09;;;8.24;76.48
21742;BME280;11033;47.490;11.116;2024-03-17T00:56:09;93724.25;;;8.23;76.69
21742;BME280;11033;47.490;11.116;2024-03-17T00:58:35;93731.78;;;8.25;76.30
21742;BME280;11033;47.490;11.116;2024-03-17T01:01:00;93721.59;;;8.20;76.88
21742;BME280;11033;47.490;11.116;2024-03-17T01:03:25;93725.75;;;8.21;77.26
21742;BME280;11033;47.490;11.116;2024-03-17T01:05:52;93722.69;;;8.12;77.62
21742;BME280;11033;47.490;11.116;2024-03-17T01:08:18;93717.78;;;8.14;77.56
21742;BME280;11033;47.490;11.116;2024-03-17T01:10:45;93718.94;;;8.16;77.28
21742;BME280;11033;47.490;11.116;2024-03-17T01:13:11;93714.38;;;8.10;78.36
21742;BME280;11033;47.490;11.116;2024-03-17T01:15:37;93709.50;;;8.12;77.90
21742;BME280;11033;47.490;11.116;2024-03-17T01:18:03;93712.88;;;8.09;78.35
21742;BME280;11033;47.490;11.116;2024-03-17T01:20:29;93706.06;;;8.08;78.21
21742;BME280;11033;47.490;11.116;2024-03-17T01:22:55;93712.47;;;8.07;78.60
21742;BME280;11033;47.490;11.116;2024-03-17T01:25:20;93707.56;;;8.02;79.31
21742;BME280;11033;47.490;11.116;2024-03-17T01:27:45;93712.84;;;7.98;78.98
21742;BME280;11033;47.490;11.116;2024-03-17T01:30:11;93706.03;;;8.01;78.34
21742;BME280;11033;47.490;11.116;2024-03-17T01:32:37;93706.41;;;8.03;77.90
21742;BME280;11033;47.490;11.116;2024-03-17T01:35:02;93699.25;;;8.00;78.48
21742;BME280;11033;47.490;11.116;2024-03-17T01:37:27;93690.16;;;7.87;79.26
21742;BME280;11033;47.490;11.116;2024-03-17T01:39:57;93697.34;;;7.93;78.29
21742;BME280;11033;47.490;11.116;2024-03-17T01:42:22;93688.63;;;7.89;78.97
21742;BME280;11033;47.490;11.116;2024-03-17T01:44:47;93693.88;;;7.78;78.96
21742;BME280;11033;47.490;11.116;2024-03-17T01:47:13;93691.22;;;7.75;78.96
21742;BME280;11033;47.490;11.116;2024-03-17T01:49:38;93680.28;;;7.76;79.02
21742;BME280;11033;47.490;11.116;2024-03-17T01:52:03;93687.41;;;7.72;79.10
21742;BME280;11033;47.490;11.116;2024-03-17T01:54:30;93687.47;;;7.80;77.89
21742;BME280;11033;47.490;11.116;2024-03-17T01:56:56;93690.09;;;7.76;78.12
21742;BME280;11033;47.490;11.116;2024-03-17T01:59:21;93679.44;;;7.62;79.54
21742;BME280;11033;47.490;11.116;2024-03-17T02:01:47;93683.28;;;7.75;78.04
21742;BME280;11033;47.490;11.116;2024-03-17T02:04:12;93684.78;;;7.72;78.76
21742;BME280;11033;47.490;11.116;2024-03-17T02:06:37;93678.75;;;7.68;79.45
21742;BME280;11033;47.490;11.116;2024-03-17T02:09:04;93671.19;;;7.67;79.45
21742;BME280;11033;47.490;11.116;2024-03-17T02:11:31;93664.34;;;7.55;80.42
21742;BME280;11033;47.490;11.116;2024-03-17T02:13:57;93664.78;;;7.71;77.27
21742;BME280;11033;47.490;11.116;2024-03-17T02:16:23;93669.63;;;7.55;80.43
21742;BME280;11033;47.490;11.116;2024-03-17T02:18:53;93663.53;;;7.48;81.09
21742;BME280;11033;47.490;11.116;2024-03-17T02:21:19;93660.56;;;7.53;80.46
21742;BME280;11033;47.490;11.116;2024-03-17T02:23:46;93654.19;;;7.64;78.48
21742;BME280;11033;47.490;11.116;2024-03-17T02:26:11;93654.56;;;7.66;78.56
21742;BME280;11033;47.490;11.116;2024-03-17T02:28:44;93642.50;;;7.69;77.66
21742;BME280;11033;47.490;11.116;2024-03-17T02:31:10;93641.00;;;7.64;78.43
21742;BME280;11033;47.490;11.116;2024-03-17T02:33:36;93642.50;;;7.65;77.47
21742;BME280;11033;47.490;11.116;2024-03-17T02:36:03;93637.94;;;7.59;77.79
21742;BME280;11033;47.490;11.116;2024-03-17T02:38:35;93640.22;;;7.60;77.56
21742;BME280;11033;47.490;11.116;2024-03-17T02:41:19;93637.19;;;7.58;76.92
21742;BME280;11033;47.490;11.116;2024-03-17T02:43:45;93632.66;;;7.55;77.50
21742;BME280;11033;47.490;11.116;2024-03-17T02:46:15;93631.50;;;7.53;76.43
21742;BME280;11033;47.490;11.116;2024-03-17T02:48:42;93632.63;;;7.48;77.17
21742;BME280;11033;47.490;11.116;2024-03-17T02:51:10;93622.81;;;7.45;76.90
21742;BME280;11033;47.490;11.116;2024-03-17T02:53:36;93613.72;;;7.39;77.19
21742;BME280;11033;47.490;11.116;2024-03-17T02:56:01;93626.13;;;7.35;76.99
21742;BME280;11033;47.490;11.116;2024-03-17T02:58:26;93616.31;;;7.32;77.36
21742;BME280;11033;47.490;11.116;2024-03-17T03:00:52;93611.44;;;7.34;76.28
21742;BME280;11033;47.490;11.116;2024-03-17T03:03:17;93607.25;;;7.29;76.74
21742;BME280;11033;47.490;11.116;2024-03-17T03:05:42;93608.00;;;7.23;76.64
21742;BME280;11033;47.490;11.116;2024-03-17T03:08:07;93603.06;;;7.18;77.40
21742;BME280;11033;47.490;11.116;2024-03-17T03:10:33;93600.78;;;7.16;77.16
21742;BME280;11033;47.490;11.116;2024-03-17T03:13:00;93600.00;;;7.12;77.47
21742;BME280;11033;47.490;11.116;2024-03-17T03:15:26;93602.63;;;7.09;77.41
21742;BME280;11033;47.490;11.116;2024-03-17T03:17:51;93614.31;;;7.08;76.96
21742;BME280;11033;47.490;11.116;2024-03-17T03:20:16;93609.38;;;7.03;77.04
21742;BME280;11033;47.490;11.116;2024-03-17T03:22:42;93608.56;;;6.95;78.02
21742;BME280;11033;47.490;11.116;2024-03-17T03:25:08;93608.78;;;6.72;80.50
21742;BME280;11033;47.490;11.116;2024-03-17T03:27:33;93610.19;;;6.56;81.48
21742;BME280;11033;47.490;11.116;2024-03-17T03:29:59;93608.84;;;6.79;78.78
21742;BME280;11033;47.490;11.116;2024-03-17T03:32:25;93614.34;;;6.60;80.17
21742;BME280;11033;47.490;11.116;2024-03-17T03:34:50;93609.53;;;6.69;79.35
21742;BME280;11033;47.490;11.116;2024-03-17T03:37:15;93611.00;;;6.63;80.50
21742;BME280;11033;47.490;11.116;2024-03-17T03:39:41;93619.97;;;6.55;81.04
21742;BME280;11033;47.490;11.116;2024-03-17T03:42:06;93619.63;;;6.60;80.10
21742;BME280;11033;47.490;11.116;2024-03-17T03:44:32;93617.41;;;6.66;78.92
21742;BME280;11033;47.490;11.116;2024-03-17T03:46:58;93621.50;;;6.60;79.14
21742;BME280;11033;47.490;11.116;2024-03-17T03:49:26;93616.63;;;6.62;78.83
21742;BME280;11033;47.490;11.116;2024-03-17T03:51:51;93620.75;;;6.59;79.07
21742;BME280;11033;47.490;11.116;2024-03-17T03:54:16;93614.75;;;6.62;78.29
21742;BME280;11033;47.490;11.116;2024-03-17T03:56:42;93615.47;;;6.59;78.58
21742;BME280;11033;47.490;11.116;2024-03-17T03:59:07;93610.59;;;6.61;77.21
21742;BME280;11033;47.490;11.116;2024-03-17T04:01:32;93621.03;;;6.47;78.92
21742;BME280;11033;47.490;11.116;2024-03-17T04:03:58;93615.28;;;6.38;79.25
21742;BME280;11033;47.490;11.116;2024-03-17T04:06:23;93608.19;;;6.42;78.42
21742;BME280;11033;47.490;11.116;2024-03-17T04:08:48;93614.63;;;6.45;78.32
21742;BME280;11033;47.490;11.116;2024-03-17T04:11:14;93612.34;;;6.47;77.41
21742;BME280;11033;47.490;11.116;2024-03-17T04:13:39;93604.44;;;6.43;77.70
21742;BME280;11033;47.490;11.116;2024-03-17T04:16:05;93610.03;;;6.38;76.70
21742;BME280;11033;47.490;11.116;2024-03-17T04:18:32;93606.19;;;6.28;77.60
21742;BME280;11033;47.490;11.116;2024-03-17T04:21:02;93606.94;;;6.29;76.99
21742;BME280;11033;47.490;11.116;2024-03-17T04:23:27;93599.00;;;6.25;77.61
21742;BME280;11033;47.490;11.116;2024-03-17T04:25:53;93609.53;;;6.22;76.99
21742;BME280;11033;47.490;11.116;2024-03-17T04:28:18;93603.44;;;6.14;77.71
21742;BME280;11033;47.490;11.116;2024-03-17T04:30:44;93610.19;;;6.15;77.60
21742;BME280;11033;47.490;11.116;2024-03-17T04:33:11;93607.16;;;6.10;76.97
21742;BME280;11033;47.490;11.116;2024-03-17T04:35:39;93605.59;;;6.05;78.16
21742;BME280;11033;47.490;11.116;2024-03-17T04:38:05;93610.06;;;6.01;78.03
21742;BME280;11033;47.490;11.116;2024-03-17T04:40:34;93609.69;;;5.99;77.84
21742;BME280;11033;47.490;11.116;2024-03-17T04:43:00;93617.13;;;5.94;78.52
21742;BME280;11033;47.490;11.116;2024-03-17T04:45:26;93617.13;;;5.94;77.11
21742;BME280;11033;47.490;11.116;2024-03-17T04:47:52;93620.00;;;5.85;78.80
21742;BME280;11033;47.490;11.116;2024-03-17T04:50:17;93617.06;;;5.87;77.32
21742;BME280;11033;47.490;11.116;2024-03-17T04:52:42;93623.78;;;5.84;78.83
21742;BME280;11033;47.490;11.116;2024-03-17T04:55:08;93621.81;;;5.77;79.25
21742;BME280;11033;47.490;11.116;2024-03-17T04:57:33;93625.94;;;5.75;79.37
21742;BME280;11033;47.490;11.116;2024-03-17T04:59:58;93624.06;;;5.75;78.67
21742;BME280;11033;47.490;11.116;2024-03-17T05:02:24;93632.63;;;5.69;79.89
21742;BME280;11033;47.490;11.116;2024-03-17T05:04:50;93637.50;;;5.67;79.29
21742;BME280;11033;47.490;11.116;2024-03-17T05:07:15;93638.66;;;5.69;78.76
21742;BME280;11033;47.490;11.116;2024-03-17T05:09:40;93637.78;;;5.58;79.51
21742;BME280;11033;47.490;11.116;2024-03-17T05:12:06;93647.25;;;5.66;78.18
21742;BME280;11033;47.490;11.116;2024-03-17T05:14:32;93641.56;;;5.61;78.73
21742;BME280;11033;47.490;11.116;2024-03-17T05:16:57;93654.00;;;5.64;77.34
21742;BME280;11033;47.490;11.116;2024-03-17T05:19:22;93654.69;;;5.57;79.01
21742;BME280;11033;47.490;11.116;2024-03-17T05:21:48;93652.63;;;5.44;80.58
21742;BME280;11033;47.490;11.116;2024-03-17T05:24:13;93640.72;;;5.53;78.63
21742;BME280;11033;47.490;11.116;2024-03-17T05:26:39;93644.53;;;5.59;77.42
21742;BME280;11033;47.490;11.116;2024-03-17T05:29:04;93646.03;;;5.57;77.76
21742;BME280;11033;47.490;11.116;2024-03-17T05:31:30;93646.69;;;5.50;78.56
21742;BME280;11033;47.490;11.116;2024-03-17T05:33:56;93651.84;;;5.40;79.47
21742;BME280;11033;47.490;11.116;2024-03-17T05:36:22;93652.91;;;5.35;80.18
21742;BME280;11033;47.490;11.116;2024-03-17T05:38:47;93654.47;;;5.40;78.62
21742;BME280;11033;47.490;11.116;2024-03-17T05:41:13;93653.19;;;5.30;80.44
21742;BME280;11033;47.490;11.116;2024-03-17T05:43:38;93661.66;;;5.16;81.07
21742;BME280;11033;47.490;11.116;2024-03-17T05:46:09;93654.97;;;5.22;80.23
21742;BME280;11033;47.490;11.116;2024-03-17T05:48:36;93661.38;;;5.25;80.31
21742;BME280;11033;47.490;11.116;2024-03-17T05:51:05;93664.47;;;5.30;80.09
21742;BME280;11033;47.490;11.116;2024-03-17T05:53:30;93661.91;;;5.34;79.19
21742;BME280;11033;47.490;11.116;2024-03-17T05:55:59;93663.81;;;5.37;78.41
21742;BME280;11033;47.490;11.116;2024-03-17T05:58:25;93667.16;;;5.34;78.13
21742;BME280;11033;47.490;11.116;2024-03-17T06:00:50;93659.25;;;5.34;78.68
21742;BME280;11033;47.490;11.116;2024-03-17T06:03:15;93658.13;;;5.31;78.37
21742;BME280;11033;47.490;11.116;2024-03-17T06:05:42;93657.69;;;5.29;78.92
21742;BME280;11033;47.490;11.116;2024-03-17T06:08:08;93664.09;;;5.28;78.94
21742;BME280;11033;47.490;11.116;2024-03-17T06:10:35;93652.03;;;5.27;78.91
21742;BME280;11033;47.490;11.116;2024-03-17T06:13:01;93655.44;;;5.28;78.52
21742;BME280;11033;47.490;11.116;2024-03-17T06:15:27;93650.13;;;5.24;79.16
21742;BME280;11033;47.490;11.116;2024-03-17T06:17:53;93648.66;;;5.27;78.13
21742;BME280;11033;47.490;11.116;2024-03-17T06:20:19;93646.78;;;5.27;78.37
21742;BME280;11033;47.490;11.116;2024-03-17T06:22:44;93647.19;;;5.29;78.11
21742;BME280;11033;47.490;11.116;2024-03-17T06:25:11;93640.81;;;5.30;78.58
21742;BME280;11033;47.490;11.116;2024-03-17T06:27:36;93644.13;;;5.24;80.50
21742;BME280;11033;47.490;11.116;2024-03-17T06:30:02;93647.66;;;5.09;81.00
21742;BME280;11033;47.490;11.116;2024-03-17T06:32:35;93639.06;;;5.12;81.37
21742;BME280;11033;47.490;11.116;2024-03-17T06:35:04;93643.25;;;5.16;80.34
21742;BME280;11033;47.490;11.116;2024-03-17T06:37:29;93646.22;;;5.15;81.53
21742;BME280;11033;47.490;11.116;2024-03-17T06:39:54;93645.59;;;5.25;81.22
21742;BME280;11033;47.490;11.116;2024-03-17T06:42:20;93649.00;;;5.25;81.08
21742;BME280;11033;47.490;11.116;2024-03-17T06:44:45;93646.06;;;5.30;80.59
21742;BME280;11033;47.490;11.116;2024-03-17T06:47:10;93654.47;;;5.40;79.93
21742;BME280;11033;47.490;11.116;2024-03-17T06:49:36;93653.56;;;5.28;81.83
21742;BME280;11033;47.490;11.116;2024-03-17T06:52:01;93649.69;;;5.49;80.22
21742;BME280;11033;47.490;11.116;2024-03-17T06:54:26;93647.03;;;5.49;80.01
21742;BME280;11033;47.490;11.116;2024-03-17T06:56:52;93652.31;;;5.49;80.19
21742;BME280;11033;47.490;11.116;2024-03-17T06:59:17;93650.53;;;5.56;79.58
21742;BME280;11033;47.490;11.116;2024-03-17T07:01:43;93654.63;;;5.54;80.92
21742;BME280;11033;47.490;11.116;2024-03-17T07:04:09;93647.84;;;5.53;80.86
21742;BME280;11033;47.490;11.116;2024-03-17T07:06:35;93646.53;;;5.66;80.38
21742;BME280;11033;47.490;11.116;2024-03-17T07:09:01;93647.72;;;5.72;80.29
21742;BME280;11033;47.490;11.116;2024-03-17T07:11:26;93647.03;;;5.78;80.12
21742;BME280;11033;47.490;11.116;2024-03-17T07:13:52;93646.22;;;5.74;80.77
21742;BME280;11033;47.490;11.116;2024-03-17T07:16:17;93648.41;;;5.65;82.22
21742;BME280;11033;47.490;11.116;2024-03-17T07:18:43;93655.34;;;5.80;82.59
21742;BME280;11033;47.490;11.116;2024-03-17T07:21:09;93659.94;;;5.87;82.03
21742;BME280;11033;47.490;11.116;2024-03-17T07:23:35;93648.00;;;5.97;81.16
21742;BME280;11033;47.490;11.116;2024-03-17T07:26:02;93645.81;;;6.02;81.39
21742;BME280;11033;47.490;11.116;2024-03-17T07:28:30;93642.47;;;6.05;81.74
21742;BME280;11033;47.490;11.116;2024-03-17T07:30:58;93641.38;;;6.10;82.40
21742;BME280;11033;47.490;11.116;2024-03-17T07:33:24;93635.44;;;6.20;82.35
21742;BME280;11033;47.490;11.116;2024-03-17T07:35:54;93634.03;;;6.26;82.25
21742;BME280;11033;47.490;11.116;2024-03-17T07:38:20;93630.31;;;6.34;81.76
21742;BME280;11033;47.490;11.116;2024-03-17T07:43:24;93622.09;;;6.43;82.69
21742;BME280;11033;47.490;11.116;2024-03-17T07:46:16;93622.97;;;6.54;82.56
21742;BME280;11033;47.490;11.116;2024-03-17T07:48:43;93629.06;;;6.65;80.74
21742;BME280;11033;47.490;11.116;2024-03-17T07:51:14;93623.09;;;6.71;80.84
21742;BME280;11033;47.490;11.116;2024-03-17T07:53:41;93620.16;;;6.80;81.06
21742;BME280;11033;47.490;11.116;2024-03-17T07:56:11;93618.75;;;6.93;79.98
21742;BME280;11033;47.490;11.116;2024-03-17T07:58:40;93623.31;;;7.00;79.77
21742;BME280;11033;47.490;11.116;2024-03-17T08:01:14;93606.41;;;7.11;80.25
21742;BME280;11033;47.490;11.116;2024-03-17T08:03:41;93612.09;;;7.17;79.65
21742;BME280;11033;47.490;11.116;2024-03-17T08:06:09;93617.78;;;7.22;80.02
21742;BME280;11033;47.490;11.116;2024-03-17T08:08:36;93617.84;;;7.33;78.97
21742;BME280;11033;47.490;11.116;2024-03-17T08:11:02;93607.31;;;7.40;78.49
21742;BME280;11033;47.490;11.116;2024-03-17T08:13:31;93605.09;;;7.49;78.44
21742;BME280;11033;47.490;11.116;2024-03-17T08:16:04;93607.41;;;7.61;78.21
21742;BME280;11033;47.490;11.116;2024-03-17T08:18:31;93607.81;;;7.70;77.23
21742;BME280;11033;47.490;11.116;2024-03-17T08:20:56;93595.75;;;7.80;77.53
21742;BME280;11033;47.490;11.116;2024-03-17T08:23:23;93599.16;;;7.84;75.74
21742;BME280;11033;47.490;11.116;2024-03-17T08:25:52;93598.06;;;7.96;76.02
21742;BME280;11033;47.490;11.116;2024-03-17T08:28:18;93596.97;;;8.00;75.35
21742;BME280;11033;47.490;11.116;2024-03-17T08:30:51;93588.69;;;8.09;75.43
21742;BME280;11033;47.490;11.116;2024-03-17T08:33:16;93585.28;;;8.15;75.35
21742;BME280;11033;47.490;11.116;2024-03-17T08:35:41;93577.75;;;8.21;73.99
21742;BME280;11033;47.490;11.116;2024-03-17T08:38:06;93575.16;;;8.32;74.35
21742;BME280;11033;47.490;11.116;2024-03-17T08:40:32;93579.69;;;8.45;74.08
21742;BME280;11033;47.490;11.116;2024-03-17T08:42:57;93568.72;;;8.54;73.06
21742;BME280;11033;47.490;11.116;2024-03-17T08:45:22;93575.53;;;8.65;73.32
21742;BME280;11033;47.490;11.116;2024-03-17T08:47:51;93572.88;;;8.72;71.79
21742;BME280;11033;47.490;11.116;2024-03-17T08:50:17;93572.50;;;8.85;70.45
21742;BME280;11033;47.490;11.116;2024-03-17T08:52:43;93557.72;;;8.94;71.33
21742;BME280;11033;47.490;11.116;2024-03-17T08:55:09;93553.91;;;9.06;71.53
21742;BME280;11033;47.490;11.116;2024-03-17T08:57:38;93564.09;;;9.25;70.63
21742;BME280;11033;47.490;11.116;2024-03-17T09:00:04;93550.84;;;9.25;71.36
21742;BME280;11033;47.490;11.116;2024-03-17T09:02:30;93548.16;;;9.32;71.08
21742;BME280;11033;47.490;11.116;2024-03-17T09:04:55;93550.41;;;9.44;70.92
21742;BME280;11033;47.490;11.116;2024-03-17T09:07:20;93552.94;;;9.65;70.67
21742;BME280;11033;47.490;11.116;2024-03-17T09:09:47;93543.00;;;9.84;69.32
21742;BME280;11033;47.490;11.116;2024-03-17T09:12:13;93545.97;;;10.00;68.33
21742;BME280;11033;47.490;11.116;2024-03-17T09:14:38;93542.88;;;10.08;69.82
21742;BME280;11033;47.490;11.116;2024-03-17T09:17:06;93539.41;;;10.22;67.67
21742;BME280;11033;47.490;11.116;2024-03-17T09:19:31;93532.06;;;10.40;67.10
21742;BME280;11033;47.490;11.116;2024-03-17T09:21:58;93530.03;;;10.58;67.51
21742;BME280;11033;47.490;11.116;2024-03-17T09:24:24;93527.97;;;10.77;66.65
21742;BME280;11033;47.490;11.116;2024-03-17T09:26:49;93527.78;;;10.98;67.14
21742;BME280;11033;47.490;11.116;2024-03-17T09:29:15;93526.47;;;11.13;66.70
21742;BME280;11033;47.490;11.116;2024-03-17T09:31:41;93525.22;;;11.25;66.31
21742;BME280;11033;47.490;11.116;2024-03-17T09:34:07;93522.34;;;11.42;65.26
21742;BME280;11033;47.490;11.116;2024-03-17T09:36:32;93516.38;;;11.65;65.69
21742;BME280;11033;47.490;11.116;2024-03-17T09:38:57;93515.03;;;11.84;65.46
21742;BME280;11033;47.490;11.116;2024-03-17T09:41:24;93513.56;;;12.06;63.47
21742;BME280;11033;47.490;11.116;2024-03-17T09:43:53;93509.25;;;12.16;61.94
21742;BME280;11033;47.490;11.116;2024-03-17T09:46:19;93507.16;;;12.27;60.69
21742;BME280;11033;47.490;11.116;2024-03-17T09:48:44;93512.00;;;12.58;60.13
21742;BME280;11033;47.490;11.116;2024-03-17T09:51:18;93515.13;;;12.77;60.48
21742;BME280;11033;47.490;11.116;2024-03-17T09:53:44;93524.19;;;12.79;58.29
21742;BME280;11033;47.490;11.116;2024-03-17T09:56:12;93521.56;;;12.99;61.07
21742;BME280;11033;47.490;11.116;2024-03-17T09:58:42;93517.28;;;13.05;57.02
21742;BME280;11033;47.490;11.116;2024-03-17T10:01:07;93505.38;;;13.13;57.10
21742;BME280;11033;47.490;11.116;2024-03-17T10:03:46;93503.09;;;13.31;55.96
21742;BME280;11033;47.490;11.116;2024-03-17T10:06:15;93499.47;;;13.61;56.40
21742;BME280;11033;47.490;11.116;2024-03-17T10:08:44;93499.59;;;13.74;56.35
21742;BME280;11033;47.490;11.116;2024-03-17T10:11:11;93496.66;;;14.04;54.86
21742;BME280;11033;47.490;11.116;2024-03-17T10:13:37;93489.84;;;14.19;55.56
21742;BME280;11033;47.490;11.116;2024-03-17T10:16:03;93498.53;;;14.23;51.91
21742;BME280;11033;47.490;11.116;2024-03-17T10:18:28;93490.88;;;14.41;49.99
21742;BME280;11033;47.490;11.116;2024-03-17T10:20:53;93496.22;;;14.58;48.42
21742;BME280;11033;47.490;11.116;2024-03-17T10:23:23;93494.66;;;14.89;52.09
21742;BME280;11033;47.490;11.116;2024-03-17T10:25:48;93496.16;;;15.06;49.07
21742;BME280;11033;47.490;11.116;2024-03-17T10:28:16;93488.59;;;15.17;49.32
21742;BME280;11033;47.490;11.116;2024-03-17T10:30:42;93484.59;;;15.09;46.06
21742;BME280;11033;47.490;11.116;2024-03-17T10:33:22;93481.22;;;15.21;47.97
21742;BME280;11033;47.490;11.116;2024-03-17T10:35:48;93476.25;;;15.48;48.32
21742;BME280;11033;47.490;11.116;2024-03-17T10:38:13;93468.94;;;15.65;47.59
21742;BME280;11033;47.490;11.116;2024-03-17T10:40:39;93466.63;;;15.92;49.19
21742;BME280;11033;47.490;11.116;2024-03-17T10:43:05;93471.66;;;16.03;47.82
21742;BME280;11033;47.490;11.116;2024-03-17T10:45:32;93465.22;;;15.88;46.70
21742;BME280;11033;47.490;11.116;2024-03-17T10:48:03;93458.38;;;15.33;42.04
21742;BME280;11033;47.490;11.116;2024-03-17T10:50:35;93463.50;;;15.69;44.44
21742;BME280;11033;47.490;11.116;2024-03-17T10:53:02;93466.13;;;15.56;42.58
21742;BME280;11033;47.490;11.116;2024-03-17T10:55:31;93461.06;;;16.00;43.74
21742;BME280;11033;47.490;11.116;2024-03-17T10:57:59;93455.59;;;16.03;44.09
21742;BME280;11033;47.490;11.116;2024-03-17T11:00:29;93457.22;;;16.01;43.35
21742;BME280;11033;47.490;11.116;2024-03-17T11:02:55;93461.69;;;15.91;43.64
21742;BME280;11033;47.490;11.116;2024-03-17T11:05:28;93462.13;;;15.89;43.24
21742;BME280;11033;47.490;11.116;2024-03-17T11:07:59;93451.53;;;15.99;43.10
21742;BME280;11033;47.490;11.116;2024-03-17T11:10:34;93455.91;;;16.18;43.51
21742;BME280;11033;47.490;11.116;2024-03-17T11:13:01;93447.88;;;16.30;44.84
21742;BME280;11033;47.490;11.116;2024-03-17T11:20:33;93441.72;;;16.68;43.83
21742;BME280;11033;47.490;11.116;2024-03-17T11:23:00;93443.44;;;16.96;43.61
21742;BME280;11033;47.490;11.116;2024-03-17T11:27:51;93439.16;;;17.42;44.89
21742;BME280;11033;47.490;11.116;2024-03-17T11:30:42;93438.75;;;17.53;40.68
21742;BME280;11033;47.490;11.116;2024-03-17T11:38:58;93433.72;;;17.85;40.63
21742;BME280;11033;47.490;11.116;2024-03-17T11:41:43;93433.56;;;18.20;42.59
21742;BME280;11033;47.490;11.116;2024-03-17T11:46:55;93433.44;;;17.83;39.70
21742;BME280;11033;47.490;11.116;2024-03-17T11:49:35;93437.22;;;17.95;40.88
21742;BME280;11033;47.490;11.116;2024-03-17T11:52:14;93433.69;;;18.16;41.63
21742;BME280;11033;47.490;11.116;2024-03-17T11:54:43;93427.19;;;18.35;40.58
21742;BME280;11033;47.490;11.116;2024-03-17T11:57:13;93432.28;;;18.43;41.89
21742;BME280;11033;47.490;11.116;2024-03-17T11:59:40;93428.16;;;18.60;41.48
21742;BME280;11033;47.490;11.116;2024-03-17T12:02:23;93429.06;;;18.75;41.19
21742;BME280;11033;47.490;11.116;2024-03-17T12:04:50;93427.88;;;18.85;40.96
21742;BME280;11033;47.490;11.116;2024-03-17T12:07:17;93425.34;;;18.91;41.23
21742;BME280;11033;47.490;11.116;2024-03-17T12:09:44;93418.91;;;19.15;40.82
21742;BME280;11033;47.490;11.116;2024-03-17T12:12:22;93413.97;;;18.68;40.21
21742;BME280;11033;47.490;11.116;2024-03-17T12:14:48;93408.00;;;19.10;40.25
21742;BME280;11033;47.490;11.116;2024-03-17T12:17:20;93406.19;;;19.25;40.31
21742;BME280;11033;47.490;11.116;2024-03-17T12:19:45;93405.44;;;19.43;39.66
21742;BME280;11033;47.490;11.116;2024-03-17T12:22:18;93407.53;;;19.48;40.31
21742;BME280;11033;47.490;11.116;2024-03-17T12:24:48;93410.22;;;19.20;39.78
21742;BME280;11033;47.490;11.116;2024-03-17T12:27:22;93399.88;;;19.55;40.40
21742;BME280;11033;47.490;11.116;2024-03-17T12:29:49;93405.25;;;19.55;40.54
21742;BME280;11033;47.490;11.116;2024-03-17T12:32:22;93396.16;;;19.53;39.57
21742;BME280;11033;47.490;11.116;2024-03-17T12:34:57;93395.19;;;19.65;42.09
21742;BME280;11033;47.490;11.116;2024-03-17T12:37:25;93396.44;;;19.64;41.22
21742;BME280;11033;47.490;11.116;2024-03-17T12:39:56;93384.91;;;19.54;40.97
21742;BME280;11033;47.490;11.116;2024-03-17T12:42:28;93398.25;;;19.40;40.90
21742;BME280;11033;47.490;11.116;2024-03-17T12:45:00;93389.53;;;19.63;41.37
21742;BME280;11033;47.490;11.116;2024-03-17T12:47:31;93385.72;;;19.46;42.02
21742;BME280;11033;47.490;11.116;2024-03-17T12:50:01;93392.56;;;19.38;42.19
21742;BME280;11033;47.490;11.116;2024-03-17T12:52:31;93386.53;;;19.61;42.74
21742;BME280;11033;47.490;11.116;2024-03-17T12:55:04;93392.13;;;19.30;42.26
21742;BME280;11033;47.490;11.116;2024-03-17T12:58:08;93386.00;;;19.29;42.53
21742;BME280;11033;47.490;11.116;2024-03-17T13:01:02;93385.41;;;19.25;42.88
21742;BME280;11033;47.490;11.116;2024-03-17T13:03:33;93388.13;;;18.98;43.29
21742;BME280;11033;47.490;11.116;2024-03-17T13:05:59;93389.66;;;18.81;43.58
21742;BME280;11033;47.490;11.116;2024-03-17T13:08:25;93385.63;;;18.86;43.39
21742;BME280;11033;47.490;11.116;2024-03-17T13:10:50;93391.41;;;18.57;44.16
21742;BME280;11033;47.490;11.116;2024-03-17T13:13:16;93386.81;;;18.66;43.96
21742;BME280;11033;47.490;11.116;2024-03-17T13:15:42;93385.69;;;18.46;44.66